Time;durP1;ratioP1;P1;durP2;ratioP2;P2;SDS_P1;SDS_P2;PMS_P1;PMS_P2;Temp;Humidity;BMP_temperature;BMP_pressure;BME280_temperature;BME280_humidity;BME280_pressure;Samples;Min_cycle;Max_cycle;Signal;HPM_P1;HPM_P2
2023/08/10 00:01:43;;;;;;;3.85;2.50;;;;;;;;;;5113267;28;20063;-66
2023/08/10 00:04:09;;;;;;;10.23;2.88;;;;;;;;;;5098624;28;20025;-66
2023/08/10 00:06:34;;;;;;;5.30;2.63;;;;;;;;;;5102882;28;20023;-65
2023/08/10 00:08:59;;;;;;;4.95;3.40;;;;;;;;;;5094032;28;20434;-66
2023/08/10 00:11:25;;;;;;;5.18;3.13;;;;;;;;;;5111936;28;20560;-65
2023/08/10 00:13:50;;;;;;;4.95;2.85;;;;;;;;;;5095389;28;20107;-65
2023/08/10 00:16:15;;;;;;;4.63;2.80;;;;;;;;;;5101144;28;20036;-65
2023/08/10 00:18:41;;;;;;;3.97;2.65;;;;;;;;;;5105650;28;20019;-65
2023/08/10 00:21:06;;;;;;;3.67;1.90;;;;;;;;;;5101193;28;20493;-66
2023/08/10 00:23:31;;;;;;;5.30;2.88;;;;;;;;;;5111392;28;20058;-68
2023/08/10 00:25:57;;;;;;;8.18;2.70;;;;;;;;;;5111471;28;20046;-67
2023/08/10 00:28:23;;;;;;;5.43;2.92;;;;;;;;;;5111777;28;20405;-66
2023/08/10 00:30:48;;;;;;;5.38;2.90;;;;;;;;;;5110655;28;20080;-66
2023/08/10 00:33:13;;;;;;;4.00;2.90;;;;;;;;;;5096689;28;20031;-66
2023/08/10 00:35:38;;;;;;;4.90;3.43;;;;;;;;;;5098747;28;20029;-66
2023/08/10 00:38:04;;;;;;;5.43;2.63;;;;;;;;;;5092161;28;20779;-66
2023/08/10 00:40:29;;;;;;;6.05;3.50;;;;;;;;;;5108452;28;20504;-66
2023/08/10 00:42:56;;;;;;;5.65;3.13;;;;;;;;;;5095032;28;20020;-66
2023/08/10 00:45:21;;;;;;;4.85;2.70;;;;;;;;;;5095813;28;20035;-66
2023/08/10 00:47:47;;;;;;;5.20;2.60;;;;;;;;;;5099941;28;20152;-66
2023/08/10 00:50:12;;;;;;;4.55;2.65;;;;;;;;;;5102539;28;20023;-66
2023/08/10 00:52:37;;;;;;;5.13;2.90;;;;;;;;;;5099624;28;20028;-66
2023/08/10 00:55:03;;;;;;;6.55;2.30;;;;;;;;;;5093861;28;20027;-66
2023/08/10 00:57:28;;;;;;;4.35;2.85;;;;;;;;;;5091441;28;20069;-66
2023/08/10 00:59:54;;;;;;;6.85;2.80;;;;;;;;;;5091831;28;20074;-66
2023/08/10 01:02:19;;;;;;;4.70;2.60;;;;;;;;;;5101371;28;20023;-67
2023/08/10 01:04:44;;;;;;;10.32;2.70;;;;;;;;;;5092484;28;20110;-66
2023/08/10 01:07:19;;;;;;;6.07;2.90;;;;;;;;;;5092724;28;20020;-67
2023/08/10 01:09:50;;;;;;;5.38;2.75;;;;;;;;;;5074886;28;20024;-66
2023/08/10 01:12:36;;;;;;;3.60;2.50;;;;;;;;;;5055706;28;20020;-66
2023/08/10 01:15:13;;;;;;;4.47;2.58;;;;;;;;;;5054170;28;20032;-66
2023/08/10 01:17:40;;;;;;;4.00;2.80;;;;;;;;;;5072430;28;20030;-66
2023/08/10 01:20:07;;;;;;;4.68;2.22;;;;;;;;;;5059590;28;20105;-66
2023/08/10 01:22:37;;;;;;;3.72;2.65;;;;;;;;;;5055012;28;20082;-66
2023/08/10 01:25:03;;;;;;;4.97;2.60;;;;;;;;;;5033128;28;20870;-66
2023/08/10 01:27:29;;;;;;;3.92;2.35;;;;;;;;;;5063588;28;20077;-66
2023/08/10 01:29:55;;;;;;;3.42;2.47;;;;;;;;;;5061891;28;20912;-66
2023/08/10 01:32:21;;;;;;;6.07;2.97;;;;;;;;;;5093673;28;20015;-66
2023/08/10 01:34:47;;;;;;;4.03;2.72;;;;;;;;;;5093992;28;20051;-66
2023/08/10 01:37:12;;;;;;;4.68;2.33;;;;;;;;;;5094089;28;20478;-66
2023/08/10 01:39:37;;;;;;;4.88;2.85;;;;;;;;;;5092890;28;20102;-66
2023/08/10 01:42:05;;;;;;;6.87;2.23;;;;;;;;;;5094218;28;20032;-66
2023/08/10 01:44:33;;;;;;;5.93;2.45;;;;;;;;;;5091317;28;20308;-66
2023/08/10 01:47:01;;;;;;;4.75;2.80;;;;;;;;;;5094463;28;20038;-66
2023/08/10 01:49:29;;;;;;;8.55;2.70;;;;;;;;;;5108692;28;20020;-66
2023/08/10 01:51:54;;;;;;;4.03;2.40;;;;;;;;;;5109676;28;20119;-66
2023/08/10 01:54:20;;;;;;;7.00;2.80;;;;;;;;;;5108851;28;20111;-66
2023/08/10 01:56:45;;;;;;;2.97;2.22;;;;;;;;;;5102588;28;20055;-66
2023/08/10 01:59:10;;;;;;;4.20;2.65;;;;;;;;;;5103742;28;20031;-65
2023/08/10 02:01:35;;;;;;;7.30;2.83;;;;;;;;;;5102914;28;20081;-66
2023/08/10 02:04:01;;;;;;;4.57;2.83;;;;;;;;;;5090135;28;20031;-66
2023/08/10 02:06:27;;;;;;;11.50;2.58;;;;;;;;;;5091871;28;20022;-66
2023/08/10 02:08:52;;;;;;;3.28;2.17;;;;;;;;;;5091837;28;20058;-66
2023/08/10 02:11:17;;;;;;;4.47;2.73;;;;;;;;;;5110102;28;20470;-66
2023/08/10 02:13:43;;;;;;;5.43;2.10;;;;;;;;;;5095948;28;20636;-66
2023/08/10 02:16:08;;;;;;;4.32;2.28;;;;;;;;;;5096172;28;20039;-67
2023/08/10 02:18:33;;;;;;;5.00;2.92;;;;;;;;;;5095752;28;20066;-66
2023/08/10 02:21:00;;;;;;;6.13;2.53;;;;;;;;;;5081355;28;20036;-67
2023/08/10 02:23:26;;;;;;;6.00;2.90;;;;;;;;;;5105108;28;20035;-67
2023/08/10 02:25:51;;;;;;;6.43;2.80;;;;;;;;;;5106032;28;20032;-67
2023/08/10 02:28:16;;;;;;;3.20;2.08;;;;;;;;;;5109281;28;20024;-67
2023/08/10 02:30:41;;;;;;;3.92;2.60;;;;;;;;;;5110061;28;20027;-67
2023/08/10 02:33:07;;;;;;;3.63;2.30;;;;;;;;;;5107853;28;20024;-66
2023/08/10 02:35:32;;;;;;;4.60;2.67;;;;;;;;;;5109802;28;20117;-67
2023/08/10 02:37:58;;;;;;;4.15;2.72;;;;;;;;;;5110728;28;20032;-66
2023/08/10 02:40:24;;;;;;;4.50;2.85;;;;;;;;;;5112290;28;20089;-66
2023/08/10 02:42:49;;;;;;;3.33;2.40;;;;;;;;;;5112789;28;20027;-68
2023/08/10 02:45:15;;;;;;;4.05;2.58;;;;;;;;;;5101227;28;20073;-67
2023/08/10 02:47:40;;;;;;;4.88;2.70;;;;;;;;;;5114395;28;20094;-67
2023/08/10 02:50:06;;;;;;;3.90;2.45;;;;;;;;;;5101056;28;20070;-66
2023/08/10 02:52:31;;;;;;;6.82;2.85;;;;;;;;;;5114142;28;20031;-67
2023/08/10 02:54:56;;;;;;;9.25;2.85;;;;;;;;;;5113277;28;20019;-66
2023/08/10 02:57:21;;;;;;;6.28;2.72;;;;;;;;;;5111430;28;20031;-66
2023/08/10 02:59:46;;;;;;;3.13;2.35;;;;;;;;;;5112088;28;20024;-66
2023/08/10 03:02:17;;;;;;;3.87;2.53;;;;;;;;;;5112694;28;20106;-66
2023/08/10 03:04:42;;;;;;;4.60;2.75;;;;;;;;;;5112584;28;20281;-67
2023/08/10 03:07:07;;;;;;;3.80;2.90;;;;;;;;;;5111699;28;20027;-67
2023/08/10 03:09:33;;;;;;;7.50;2.70;;;;;;;;;;5112598;28;20530;-67
2023/08/10 03:11:58;;;;;;;5.15;2.30;;;;;;;;;;5112654;28;20632;-67
2023/08/10 03:14:23;;;;;;;5.05;2.92;;;;;;;;;;5112390;28;20023;-66
2023/08/10 03:16:48;;;;;;;5.80;2.55;;;;;;;;;;5093989;28;20043;-67
2023/08/10 03:19:14;;;;;;;4.28;2.13;;;;;;;;;;5112203;28;20020;-67
2023/08/10 03:21:39;;;;;;;6.78;3.05;;;;;;;;;;5112733;28;20493;-67
2023/08/10 03:24:04;;;;;;;5.17;2.80;;;;;;;;;;5105050;28;20059;-66
2023/08/10 03:26:29;;;;;;;3.97;2.78;;;;;;;;;;5113193;28;20274;-66
2023/08/10 03:28:55;;;;;;;5.28;2.88;;;;;;;;;;5106131;28;20031;-66
2023/08/10 03:31:23;;;;;;;4.18;2.72;;;;;;;;;;5106263;28;20478;-67
2023/08/10 03:33:48;;;;;;;4.72;2.70;;;;;;;;;;5096347;28;20024;-66
2023/08/10 03:36:15;;;;;;;3.95;2.70;;;;;;;;;;5092528;28;20127;-67
2023/08/10 03:38:40;;;;;;;6.05;2.92;;;;;;;;;;5083646;28;20465;-67
2023/08/10 03:41:05;;;;;;;6.68;2.78;;;;;;;;;;5100601;28;20108;-67
2023/08/10 03:43:31;;;;;;;4.38;2.72;;;;;;;;;;5097155;28;20068;-67
2023/08/10 03:45:56;;;;;;;5.50;3.75;;;;;;;;;;5112680;28;20038;-67
2023/08/10 03:48:22;;;;;;;4.63;2.80;;;;;;;;;;5097924;28;20470;-67
2023/08/10 03:50:47;;;;;;;4.25;3.03;;;;;;;;;;5102002;28;20020;-67
2023/08/10 03:53:12;;;;;;;4.65;2.90;;;;;;;;;;5095244;28;20065;-67
2023/08/10 03:55:38;;;;;;;5.97;2.83;;;;;;;;;;5097150;28;20028;-66
2023/08/10 03:58:03;;;;;;;4.73;3.10;;;;;;;;;;5094851;28;20398;-66
2023/08/10 04:00:28;;;;;;;4.45;2.85;;;;;;;;;;5095335;28;20285;-66
2023/08/10 04:02:54;;;;;;;5.28;3.25;;;;;;;;;;5095513;28;20069;-66
2023/08/10 04:05:19;;;;;;;5.35;3.42;;;;;;;;;;5094250;28;20107;-66
2023/08/10 04:07:45;;;;;;;4.95;3.22;;;;;;;;;;5099557;28;20080;-68
2023/08/10 04:10:10;;;;;;;4.75;3.33;;;;;;;;;;5101403;28;20111;-68
2023/08/10 04:12:35;;;;;;;5.10;3.50;;;;;;;;;;5095428;28;20020;-68
2023/08/10 04:15:02;;;;;;;4.57;3.30;;;;;;;;;;5094275;28;20031;-68
2023/08/10 04:17:27;;;;;;;6.05;3.58;;;;;;;;;;5095559;28;20417;-68
2023/08/10 04:19:52;;;;;;;4.85;3.33;;;;;;;;;;5101172;28;20035;-68
2023/08/10 04:22:18;;;;;;;7.22;3.22;;;;;;;;;;5103896;28;20051;-68
2023/08/10 04:24:43;;;;;;;4.38;2.90;;;;;;;;;;5110059;28;20035;-68
2023/08/10 04:27:08;;;;;;;4.00;2.92;;;;;;;;;;5103118;28;20066;-68
2023/08/10 04:29:33;;;;;;;5.25;2.95;;;;;;;;;;5107996;28;20019;-68
2023/08/10 04:31:59;;;;;;;4.53;3.05;;;;;;;;;;5107592;28;20020;-68
2023/08/10 04:34:24;;;;;;;6.45;3.72;;;;;;;;;;5100323;28;20039;-67
2023/08/10 04:36:49;;;;;;;4.77;3.20;;;;;;;;;;5098818;28;20131;-67
2023/08/10 04:39:14;;;;;;;4.47;2.92;;;;;;;;;;5085821;28;20273;-67
2023/08/10 04:41:40;;;;;;;4.15;3.33;;;;;;;;;;5097645;28;20528;-67
2023/08/10 04:44:05;;;;;;;5.13;3.35;;;;;;;;;;5095695;28;20175;-66
2023/08/10 04:46:30;;;;;;;4.47;3.42;;;;;;;;;;5097998;28;20090;-66
2023/08/10 04:48:56;;;;;;;5.80;3.90;;;;;;;;;;5105121;28;20012;-66
2023/08/10 04:51:21;;;;;;;5.32;3.90;;;;;;;;;;5110235;28;20020;-66
2023/08/10 04:53:46;;;;;;;5.07;3.67;;;;;;;;;;5102658;28;20394;-66
2023/08/10 04:56:11;;;;;;;5.20;3.40;;;;;;;;;;5101703;28;20039;-66
2023/08/10 04:58:37;;;;;;;6.70;4.30;;;;;;;;;;5100508;28;20339;-65
2023/08/10 05:01:02;;;;;;;8.40;5.55;;;;;;;;;;5100946;28;20510;-66
2023/08/10 05:03:27;;;;;;;7.15;5.45;;;;;;;;;;5100350;28;20028;-66
2023/08/10 05:05:53;;;;;;;8.32;5.07;;;;;;;;;;5102211;28;20501;-66
2023/08/10 05:08:18;;;;;;;6.97;4.93;;;;;;;;;;5100898;28;20402;-66
2023/08/10 05:10:44;;;;;;;9.50;4.63;;;;;;;;;;5098295;28;20036;-66
2023/08/10 05:13:09;;;;;;;7.68;5.20;;;;;;;;;;5111627;28;20031;-66
2023/08/10 05:15:34;;;;;;;6.40;5.13;;;;;;;;;;5110706;28;20098;-66
2023/08/10 05:17:59;;;;;;;8.05;5.65;;;;;;;;;;5109756;28;20435;-66
2023/08/10 05:20:25;;;;;;;6.95;5.38;;;;;;;;;;5105322;28;20059;-66
2023/08/10 05:22:50;;;;;;;10.02;5.38;;;;;;;;;;5110698;28;20035;-66
2023/08/10 05:25:15;;;;;;;7.03;4.95;;;;;;;;;;5110783;28;20054;-66
2023/08/10 05:27:41;;;;;;;6.45;4.82;;;;;;;;;;5110821;28;20435;-66
2023/08/10 05:30:11;;;;;;;7.40;4.88;;;;;;;;;;5104715;28;20082;-66
2023/08/10 05:32:39;;;;;;;6.32;5.47;;;;;;;;;;5100580;28;20026;-66
2023/08/10 05:35:04;;;;;;;7.25;4.90;;;;;;;;;;5106037;28;20080;-67
2023/08/10 05:37:30;;;;;;;6.78;5.18;;;;;;;;;;5101192;28;20529;-66
2023/08/10 05:39:56;;;;;;;11.30;5.53;;;;;;;;;;5097974;28;20047;-66
2023/08/10 05:42:21;;;;;;;7.07;6.07;;;;;;;;;;5098144;28;20489;-66
2023/08/10 05:44:47;;;;;;;7.68;6.47;;;;;;;;;;5098146;28;20068;-66
2023/08/10 05:47:12;;;;;;;7.50;5.80;;;;;;;;;;5097694;28;20371;-66
2023/08/10 05:49:37;;;;;;;10.05;5.07;;;;;;;;;;5097844;28;20691;-66
2023/08/10 05:52:03;;;;;;;10.35;6.30;;;;;;;;;;5101127;28;20035;-66
2023/08/10 05:54:28;;;;;;;7.70;5.95;;;;;;;;;;5098723;28;20024;-66
2023/08/10 05:56:55;;;;;;;6.22;4.88;;;;;;;;;;5097519;28;20115;-66
2023/08/10 05:59:20;;;;;;;7.43;5.60;;;;;;;;;;5098063;28;20024;-66
2023/08/10 06:01:47;;;;;;;8.20;6.18;;;;;;;;;;5096411;28;20371;-66
2023/08/10 06:04:12;;;;;;;7.80;6.32;;;;;;;;;;5097316;28;20020;-66
2023/08/10 06:06:37;;;;;;;9.73;6.57;;;;;;;;;;5104426;28;20020;-67
2023/08/10 06:09:04;;;;;;;9.17;6.90;;;;;;;;;;5103465;28;20063;-67
2023/08/10 06:11:30;;;;;;;7.70;6.57;;;;;;;;;;5093664;28;20323;-67
2023/08/10 06:13:55;;;;;;;9.10;7.07;;;;;;;;;;5093981;28;20032;-67
2023/08/10 06:16:20;;;;;;;10.98;7.05;;;;;;;;;;5097324;28;20024;-68
2023/08/10 06:18:46;;;;;;;8.18;6.82;;;;;;;;;;5099172;28;20024;-68
2023/08/10 06:21:13;;;;;;;7.77;5.83;;;;;;;;;;5112784;28;20032;-68
2023/08/10 06:23:38;;;;;;;7.95;6.18;;;;;;;;;;5111636;28;20266;-67
2023/08/10 06:26:05;;;;;;;8.60;6.80;;;;;;;;;;5113268;28;20039;-67
2023/08/10 06:28:30;;;;;;;8.90;6.68;;;;;;;;;;5095291;28;20023;-68
2023/08/10 06:30:55;;;;;;;8.93;5.88;;;;;;;;;;5075284;28;20027;-67
2023/08/10 06:33:21;;;;;;;9.95;5.97;;;;;;;;;;5114275;28;20032;-67
2023/08/10 06:35:46;;;;;;;7.50;5.57;;;;;;;;;;5113258;28;20034;-67
2023/08/10 06:38:12;;;;;;;9.68;5.65;;;;;;;;;;5114516;28;20031;-67
2023/08/10 06:40:39;;;;;;;8.55;5.10;;;;;;;;;;5101309;28;20490;-67
2023/08/10 06:43:04;;;;;;;9.13;5.60;;;;;;;;;;5103663;28;20454;-67
2023/08/10 06:45:30;;;;;;;6.15;4.57;;;;;;;;;;5102563;28;20027;-67
2023/08/10 06:47:55;;;;;;;8.25;4.75;;;;;;;;;;5113258;28;20481;-67
2023/08/10 06:50:21;;;;;;;8.50;4.90;;;;;;;;;;5113502;28;20035;-67
2023/08/10 06:52:46;;;;;;;8.43;4.47;;;;;;;;;;5102360;28;20023;-67
2023/08/10 06:55:12;;;;;;;6.45;4.18;;;;;;;;;;5112744;28;20035;-66
2023/08/10 06:57:37;;;;;;;8.13;4.07;;;;;;;;;;5111396;28;20063;-66
2023/08/10 07:00:06;;;;;;;7.63;4.07;;;;;;;;;;5104612;28;20293;-66
2023/08/10 07:02:35;;;;;;;6.93;3.65;;;;;;;;;;5107803;28;20572;-67
2023/08/10 07:05:01;;;;;;;6.75;3.50;;;;;;;;;;5112683;28;20031;-67
2023/08/10 07:07:26;;;;;;;6.72;4.10;;;;;;;;;;5111530;28;20467;-67
2023/08/10 07:09:51;;;;;;;7.13;4.32;;;;;;;;;;5113009;28;20023;-67
2023/08/10 07:12:17;;;;;;;6.38;4.63;;;;;;;;;;5097308;28;21331;-66
2023/08/10 07:14:42;;;;;;;6.18;4.63;;;;;;;;;;5100505;28;20027;-67
2023/08/10 07:17:07;;;;;;;7.93;5.07;;;;;;;;;;5097867;28;20046;-67
2023/08/10 07:19:34;;;;;;;5.68;4.20;;;;;;;;;;5095200;28;20024;-67
2023/08/10 07:21:59;;;;;;;6.60;4.03;;;;;;;;;;5107438;28;20084;-66
2023/08/10 07:24:25;;;;;;;6.70;4.00;;;;;;;;;;5097322;28;20393;-67
2023/08/10 07:26:51;;;;;;;7.13;5.13;;;;;;;;;;5095388;28;20040;-67
2023/08/10 07:29:17;;;;;;;5.68;4.13;;;;;;;;;;5094994;28;20378;-67
2023/08/10 07:31:42;;;;;;;7.80;4.55;;;;;;;;;;5113577;28;20015;-67
2023/08/10 07:34:09;;;;;;;7.07;4.50;;;;;;;;;;5096421;28;20031;-67
2023/08/10 07:36:34;;;;;;;5.82;3.47;;;;;;;;;;5093993;28;20486;-67
2023/08/10 07:38:59;;;;;;;7.00;3.90;;;;;;;;;;5094397;28;20103;-67
2023/08/10 07:41:25;;;;;;;6.25;3.50;;;;;;;;;;5094242;28;20764;-67
2023/08/10 07:43:50;;;;;;;7.20;3.55;;;;;;;;;;5094033;28;20067;-67
2023/08/10 07:46:15;;;;;;;6.38;3.80;;;;;;;;;;5094828;28;20028;-67
2023/08/10 07:48:41;;;;;;;5.63;3.47;;;;;;;;;;5113745;28;20074;-67
2023/08/10 07:51:06;;;;;;;5.80;3.10;;;;;;;;;;5098562;28;20119;-67
2023/08/10 07:53:32;;;;;;;5.72;3.30;;;;;;;;;;5093814;28;20024;-67
2023/08/10 07:55:57;;;;;;;9.88;3.28;;;;;;;;;;5094460;28;20032;-67
2023/08/10 07:58:22;;;;;;;6.37;2.87;;;;;;;;;;5094421;28;20051;-67
2023/08/10 08:00:47;;;;;;;6.53;3.03;;;;;;;;;;5094923;28;20323;-67
2023/08/10 08:03:13;;;;;;;9.50;2.73;;;;;;;;;;5093716;28;20032;-67
2023/08/10 08:05:40;;;;;;;5.28;2.33;;;;;;;;;;5094234;28;20799;-67
2023/08/10 08:08:06;;;;;;;5.30;2.33;;;;;;;;;;5101133;28;20011;-67
2023/08/10 08:10:31;;;;;;;5.93;2.65;;;;;;;;;;5098690;28;20020;-67
2023/08/10 08:12:56;;;;;;;7.95;2.58;;;;;;;;;;5092951;28;20027;-67
2023/08/10 08:15:22;;;;;;;6.97;2.83;;;;;;;;;;5093733;28;20024;-67
2023/08/10 08:18:06;;;;;;;6.20;2.13;;;;;;;;;;5095117;28;20032;-67
2023/08/10 08:20:31;;;;;;;6.30;2.83;;;;;;;;;;5097310;28;20035;-67
2023/08/10 08:22:56;;;;;;;8.40;2.25;;;;;;;;;;5093304;28;20278;-67
2023/08/10 08:25:22;;;;;;;4.83;1.77;;;;;;;;;;5093471;28;20020;-67
2023/08/10 08:27:47;;;;;;;3.33;1.40;;;;;;;;;;5093292;28;20382;-67
2023/08/10 08:30:12;;;;;;;5.50;1.63;;;;;;;;;;5093547;28;20015;-67
2023/08/10 08:32:38;;;;;;;8.38;1.77;;;;;;;;;;5093217;28;20274;-67
2023/08/10 08:35:03;;;;;;;4.30;2.20;;;;;;;;;;5091738;28;20105;-67
2023/08/10 08:37:28;;;;;;;4.82;1.95;;;;;;;;;;5092060;28;20300;-67
2023/08/10 08:39:53;;;;;;;5.60;2.28;;;;;;;;;;5095803;28;20031;-67
2023/08/10 08:42:19;;;;;;;4.78;1.95;;;;;;;;;;5103679;28;20492;-67
2023/08/10 08:44:44;;;;;;;4.53;2.10;;;;;;;;;;5092612;28;20020;-67
2023/08/10 08:47:10;;;;;;;3.00;1.42;;;;;;;;;;5100051;28;20043;-67
2023/08/10 08:49:35;;;;;;;4.65;1.95;;;;;;;;;;5094867;28;20487;-67
2023/08/10 08:52:01;;;;;;;3.65;1.80;;;;;;;;;;5103368;28;20028;-67
2023/08/10 08:54:27;;;;;;;3.17;1.73;;;;;;;;;;5105851;28;20036;-67
2023/08/10 08:56:52;;;;;;;5.30;1.50;;;;;;;;;;5101477;28;20493;-66
2023/08/10 08:59:18;;;;;;;2.95;1.35;;;;;;;;;;5109103;28;20085;-67
2023/08/10 09:01:44;;;;;;;5.95;1.52;;;;;;;;;;5093139;28;20050;-67
2023/08/10 09:04:10;;;;;;;3.30;1.25;;;;;;;;;;5093036;28;20020;-67
2023/08/10 09:06:35;;;;;;;3.33;1.45;;;;;;;;;;5092484;28;20095;-67
2023/08/10 09:09:01;;;;;;;3.20;1.35;;;;;;;;;;5092974;28;20106;-67
2023/08/10 09:11:26;;;;;;;4.40;1.40;;;;;;;;;;5091725;28;20016;-67
2023/08/10 09:14:04;;;;;;;3.33;1.48;;;;;;;;;;5093669;28;20020;-67
2023/08/10 09:16:29;;;;;;;3.40;1.42;;;;;;;;;;5092300;28;20047;-67
2023/08/10 09:18:55;;;;;;;3.47;1.20;;;;;;;;;;5092049;28;20028;-67
2023/08/10 09:21:23;;;;;;;2.87;1.33;;;;;;;;;;5091993;28;20419;-67
2023/08/10 09:23:52;;;;;;;4.15;1.30;;;;;;;;;;5092212;28;20281;-67
2023/08/10 09:26:18;;;;;;;3.83;1.27;;;;;;;;;;5092936;28;20024;-67
2023/08/10 09:28:43;;;;;;;3.13;1.25;;;;;;;;;;5093961;28;20454;-67
2023/08/10 09:31:09;;;;;;;3.90;1.30;;;;;;;;;;5092915;28;20020;-67
2023/08/10 09:33:35;;;;;;;4.97;1.60;;;;;;;;;;5092885;28;20359;-67
2023/08/10 09:36:04;;;;;;;3.22;1.50;;;;;;;;;;5092147;28;20122;-67
2023/08/10 09:38:29;;;;;;;4.30;1.40;;;;;;;;;;5096024;28;20047;-67
2023/08/10 09:41:21;;;;;;;3.65;1.70;;;;;;;;;;5111467;28;20499;-67
2023/08/10 09:43:46;;;;;;;3.30;1.33;;;;;;;;;;5088647;28;20044;-67
2023/08/10 09:46:12;;;;;;;2.55;1.20;;;;;;;;;;5106035;28;20466;-67
2023/08/10 09:48:39;;;;;;;3.67;1.65;;;;;;;;;;5111929;28;20024;-67
2023/08/10 09:51:08;;;;;;;3.55;1.63;;;;;;;;;;5111390;28;20023;-67
2023/08/10 09:53:33;;;;;;;3.42;1.60;;;;;;;;;;5102757;28;20016;-67
2023/08/10 09:55:59;;;;;;;4.00;1.88;;;;;;;;;;5105456;28;20039;-67
2023/08/10 09:58:26;;;;;;;5.15;2.20;;;;;;;;;;5072194;28;20506;-67
2023/08/10 10:00:51;;;;;;;3.95;1.80;;;;;;;;;;5072243;28;20032;-67
2023/08/10 10:03:28;;;;;;;3.60;2.28;;;;;;;;;;5071126;28;20028;-67
2023/08/10 10:05:54;;;;;;;5.43;1.88;;;;;;;;;;5080855;28;20440;-67
2023/08/10 10:08:19;;;;;;;3.58;2.28;;;;;;;;;;5080870;28;20016;-67
2023/08/10 10:10:45;;;;;;;3.75;1.90;;;;;;;;;;5077045;28;20028;-67
2023/08/10 10:13:15;;;;;;;3.35;1.85;;;;;;;;;;5086211;28;20459;-67
2023/08/10 10:15:41;;;;;;;3.67;2.17;;;;;;;;;;5082459;28;20047;-67
2023/08/10 10:18:08;;;;;;;6.03;2.30;;;;;;;;;;5086000;28;20420;-67
2023/08/10 10:20:35;;;;;;;4.22;2.05;;;;;;;;;;5075193;28;20066;-67
2023/08/10 10:23:01;;;;;;;3.45;2.30;;;;;;;;;;5071770;28;20029;-67
2023/08/10 10:25:26;;;;;;;3.17;1.60;;;;;;;;;;5031145;28;20071;-67
2023/08/10 10:27:51;;;;;;;3.23;1.83;;;;;;;;;;5069247;28;20485;-67
2023/08/10 10:30:18;;;;;;;3.92;2.03;;;;;;;;;;5082119;28;20684;-67
2023/08/10 10:32:44;;;;;;;3.90;1.92;;;;;;;;;;5076339;28;20039;-67
2023/08/10 10:35:10;;;;;;;7.15;1.77;;;;;;;;;;5084787;28;20045;-67
2023/08/10 10:37:35;;;;;;;2.90;1.57;;;;;;;;;;5085896;28;20480;-67
2023/08/10 10:40:12;;;;;;;4.55;1.73;;;;;;;;;;5087998;28;20274;-67
2023/08/10 10:42:57;;;;;;;3.38;1.80;;;;;;;;;;5080401;28;20024;-67
2023/08/10 10:45:23;;;;;;;3.95;1.63;;;;;;;;;;5078389;28;20028;-67
2023/08/10 10:47:49;;;;;;;3.33;2.00;;;;;;;;;;5046892;28;20371;-67
2023/08/10 10:50:19;;;;;;;5.28;1.73;;;;;;;;;;5032117;28;20028;-67
2023/08/10 10:52:56;;;;;;;4.00;2.00;;;;;;;;;;5045842;28;20024;-67
2023/08/10 10:55:22;;;;;;;4.93;1.70;;;;;;;;;;5039020;28;20079;-67
2023/08/10 10:57:49;;;;;;;2.58;1.38;;;;;;;;;;5042990;28;20056;-67
2023/08/10 11:00:15;;;;;;;4.13;1.17;;;;;;;;;;5048129;28;20127;-67
2023/08/10 11:02:41;;;;;;;3.53;1.67;;;;;;;;;;5047201;28;20040;-67
2023/08/10 11:05:10;;;;;;;2.45;1.27;;;;;;;;;;5084800;28;20481;-67
2023/08/10 11:07:39;;;;;;;3.17;2.10;;;;;;;;;;5091706;28;20470;-67
2023/08/10 11:10:06;;;;;;;4.53;2.35;;;;;;;;;;5080558;28;20059;-67
2023/08/10 11:12:31;;;;;;;5.45;2.05;;;;;;;;;;5073089;28;20091;-68
2023/08/10 11:14:56;;;;;;;4.13;2.30;;;;;;;;;;5073479;28;20024;-67
2023/08/10 11:17:24;;;;;;;4.05;1.88;;;;;;;;;;5068645;28;20024;-67
2023/08/10 11:19:50;;;;;;;3.15;1.25;;;;;;;;;;5073658;28;20025;-67
2023/08/10 11:22:18;;;;;;;2.35;1.33;;;;;;;;;;5073360;28;20019;-67
2023/08/10 11:24:45;;;;;;;3.55;2.08;;;;;;;;;;5073288;28;20047;-67
2023/08/10 11:27:10;;;;;;;3.13;1.83;;;;;;;;;;5072375;28;20020;-67
2023/08/10 11:29:36;;;;;;;4.73;2.40;;;;;;;;;;5073189;28;20020;-67
2023/08/10 11:32:01;;;;;;;4.30;1.83;;;;;;;;;;5077780;28;20270;-66
2023/08/10 11:34:26;;;;;;;2.55;1.40;;;;;;;;;;5085061;28;20028;-67
2023/08/10 11:36:52;;;;;;;4.60;1.70;;;;;;;;;;5079992;28;20041;-66
2023/08/10 11:39:18;;;;;;;3.70;1.52;;;;;;;;;;5083517;28;20035;-67
2023/08/10 11:41:45;;;;;;;2.30;1.10;;;;;;;;;;5079387;28;20035;-66
2023/08/10 11:44:21;;;;;;;2.25;1.30;;;;;;;;;;5078618;28;20032;-67
2023/08/10 11:46:46;;;;;;;3.10;1.35;;;;;;;;;;5092032;28;20032;-67
2023/08/10 11:49:12;;;;;;;3.15;1.35;;;;;;;;;;5092171;28;20032;-67
2023/08/10 11:51:37;;;;;;;2.45;1.08;;;;;;;;;;5091600;28;20032;-68
2023/08/10 11:54:09;;;;;;;2.25;1.00;;;;;;;;;;5092079;28;20051;-67
2023/08/10 11:56:42;;;;;;;2.60;1.00;;;;;;;;;;5091004;28;20034;-67
2023/08/10 11:59:11;;;;;;;4.50;1.15;;;;;;;;;;5091852;28;20028;-67
2023/08/10 12:02:06;;;;;;;2.95;1.00;;;;;;;;;;5091605;28;20024;-66
2023/08/10 12:04:31;;;;;;;3.13;1.30;;;;;;;;;;5049251;28;20126;-67
2023/08/10 12:06:57;;;;;;;1.80;0.60;;;;;;;;;;5042465;28;20028;-67
2023/08/10 12:09:25;;;;;;;2.50;1.30;;;;;;;;;;5041861;28;20976;-67
2023/08/10 12:11:53;;;;;;;3.35;0.95;;;;;;;;;;5044692;28;20284;-67
2023/08/10 12:14:19;;;;;;;2.30;0.82;;;;;;;;;;5045806;28;20095;-67
2023/08/10 12:16:44;;;;;;;1.95;1.00;;;;;;;;;;5072457;28;20470;-67
2023/08/10 12:19:10;;;;;;;5.47;1.23;;;;;;;;;;5073842;28;20027;-67
2023/08/10 12:21:35;;;;;;;1.50;0.77;;;;;;;;;;5076035;28;20364;-67
2023/08/10 12:24:01;;;;;;;1.30;0.70;;;;;;;;;;5056602;28;20027;-67
2023/08/10 12:26:26;;;;;;;2.37;1.20;;;;;;;;;;5076485;28;20063;-67
2023/08/10 12:28:51;;;;;;;2.73;0.90;;;;;;;;;;5072161;28;20291;-68
2023/08/10 12:31:17;;;;;;;2.08;0.85;;;;;;;;;;5077356;28;20278;-67
2023/08/10 12:33:42;;;;;;;2.65;1.42;;;;;;;;;;5073878;28;20023;-67
2023/08/10 12:36:08;;;;;;;1.73;0.77;;;;;;;;;;5076425;28;20036;-67
2023/08/10 12:38:33;;;;;;;2.03;1.05;;;;;;;;;;5075549;28;20275;-67
2023/08/10 12:40:58;;;;;;;1.93;1.00;;;;;;;;;;5077161;28;20157;-67
2023/08/10 12:43:23;;;;;;;1.75;0.77;;;;;;;;;;5060704;28;20282;-67
2023/08/10 12:45:49;;;;;;;2.55;0.77;;;;;;;;;;5030845;28;20740;-67
2023/08/10 12:48:14;;;;;;;1.33;0.63;;;;;;;;;;5037110;28;21136;-67
2023/08/10 12:50:39;;;;;;;2.20;0.93;;;;;;;;;;5044026;28;20032;-67
2023/08/10 12:53:05;;;;;;;1.95;0.80;;;;;;;;;;5031466;28;20568;-67
2023/08/10 12:55:31;;;;;;;1.98;1.08;;;;;;;;;;5034483;28;20138;-67
2023/08/10 12:57:56;;;;;;;2.72;0.80;;;;;;;;;;5036848;28;20230;-67
2023/08/10 13:00:21;;;;;;;2.53;1.03;;;;;;;;;;5041806;28;20911;-67
2023/08/10 13:02:48;;;;;;;2.03;0.88;;;;;;;;;;5080930;28;20410;-67
2023/08/10 13:05:14;;;;;;;2.35;1.02;;;;;;;;;;5081227;28;20031;-67
2023/08/10 13:07:40;;;;;;;2.78;0.90;;;;;;;;;;5080691;28;20020;-67
2023/08/10 13:10:06;;;;;;;1.83;0.90;;;;;;;;;;5083872;28;20035;-67
2023/08/10 13:12:31;;;;;;;3.22;1.08;;;;;;;;;;5075115;28;20055;-67
2023/08/10 13:14:57;;;;;;;7.53;1.00;;;;;;;;;;5080101;28;20089;-67
2023/08/10 13:17:23;;;;;;;4.05;1.55;;;;;;;;;;5083694;28;20042;-67
2023/08/10 13:19:48;;;;;;;3.30;1.13;;;;;;;;;;5080479;28;20127;-67
2023/08/10 13:22:14;;;;;;;2.67;1.02;;;;;;;;;;5083377;28;20104;-67
2023/08/10 13:24:40;;;;;;;1.75;0.80;;;;;;;;;;5081613;28;20034;-68
2023/08/10 13:27:08;;;;;;;2.55;1.10;;;;;;;;;;5087089;28;20062;-67
2023/08/10 13:29:33;;;;;;;2.95;1.30;;;;;;;;;;5080220;28;20020;-67
2023/08/10 13:31:59;;;;;;;2.23;1.07;;;;;;;;;;5081928;28;20065;-67
2023/08/10 13:34:24;;;;;;;2.80;1.55;;;;;;;;;;5072106;28;20330;-67
2023/08/10 13:36:52;;;;;;;2.58;1.10;;;;;;;;;;5073164;28;20039;-67
2023/08/10 13:39:17;;;;;;;2.03;0.93;;;;;;;;;;5088376;28;20043;-67
2023/08/10 13:41:42;;;;;;;2.70;1.20;;;;;;;;;;5089316;28;20027;-67
2023/08/10 13:44:09;;;;;;;2.83;1.20;;;;;;;;;;5079953;28;20274;-67
2023/08/10 13:46:34;;;;;;;3.08;1.15;;;;;;;;;;5082959;28;20611;-67
2023/08/10 13:49:00;;;;;;;2.77;1.00;;;;;;;;;;5076848;28;20078;-67
2023/08/10 13:51:25;;;;;;;2.92;1.30;;;;;;;;;;5080446;28;20266;-67
2023/08/10 13:53:50;;;;;;;1.67;0.90;;;;;;;;;;5082940;28;20386;-67
2023/08/10 13:56:16;;;;;;;1.80;0.77;;;;;;;;;;5078782;28;20765;-67
2023/08/10 13:58:41;;;;;;;2.53;1.13;;;;;;;;;;5085196;28;21631;-65
2023/08/10 14:01:06;;;;;;;3.20;1.23;;;;;;;;;;5079779;28;20364;-67
2023/08/10 14:03:35;;;;;;;3.92;1.23;;;;;;;;;;5079742;28;20016;-66
2023/08/10 14:06:03;;;;;;;2.10;1.10;;;;;;;;;;5073588;28;20025;-66
2023/08/10 14:08:29;;;;;;;1.70;0.90;;;;;;;;;;5070314;28;20105;-67
2023/08/10 14:10:55;;;;;;;2.35;1.08;;;;;;;;;;5083995;28;20020;-65
2023/08/10 14:13:21;;;;;;;3.83;1.30;;;;;;;;;;5088726;28;20023;-67
2023/08/10 14:15:46;;;;;;;4.70;1.48;;;;;;;;;;5088158;28;20028;-67
2023/08/10 14:18:11;;;;;;;2.20;1.30;;;;;;;;;;5087864;28;20028;-67
2023/08/10 14:20:37;;;;;;;2.40;1.13;;;;;;;;;;5082590;28;20024;-67
2023/08/10 14:23:02;;;;;;;2.30;1.03;;;;;;;;;;5080261;28;20664;-67
2023/08/10 14:25:27;;;;;;;1.77;1.02;;;;;;;;;;5083177;28;20273;-68
2023/08/10 14:27:54;;;;;;;2.03;0.90;;;;;;;;;;5079243;28;20025;-67
2023/08/10 14:30:19;;;;;;;2.20;1.20;;;;;;;;;;5082799;28;20298;-67
2023/08/10 14:32:44;;;;;;;3.00;1.15;;;;;;;;;;5090917;28;20446;-67
2023/08/10 14:35:10;;;;;;;2.33;0.95;;;;;;;;;;5079706;28;20104;-67
2023/08/10 14:37:35;;;;;;;2.17;1.08;;;;;;;;;;5093132;28;20042;-67